sensor_id;sensor_type;location;lat;lon;timestamp;pressure;altitude;pressure_sealevel;temperature;humidity
70506;BME280;58032;49.820;6.274;2022-11-14T00:00:09;97501.47;;;1.41;100.00
70506;BME280;58032;49.820;6.274;2022-11-14T00:02:58;97495.53;;;1.36;100.00
70506;BME280;58032;49.820;6.274;2022-11-14T00:05:45;97499.91;;;1.37;100.00
70506;BME280;58032;49.820;6.274;2022-11-14T00:08:30;97493.19;;;1.27;100.00
70506;BME280;58032;49.820;6.274;2022-11-14T00:11:16;97493.97;;;1.27;100.00
70506;BME280;58032;49.820;6.274;2022-11-14T00:14:02;97495.56;;;1.32;100.00
70506;BME280;58032;49.820;6.274;2022-11-14T00:16:47;97492.75;;;1.47;100.00
70506;BME280;58032;49.820;6.274;2022-11-14T00:19:33;97487.16;;;1.68;100.00
70506;BME280;58032;49.820;6.274;2022-11-14T00:22:18;97484.63;;;1.92;100.00
70506;BME280;58032;49.820;6.274;2022-11-14T00:25:04;97478.03;;;1.61;100.00
70506;BME280;58032;49.820;6.274;2022-11-14T00:27:49;97474.97;;;1.26;100.00
70506;BME280;58032;49.820;6.274;2022-11-14T00:30:35;97477.78;;;1.01;100.00
70506;BME280;58032;49.820;6.274;2022-11-14T00:33:21;97479.00;;;0.89;100.00
70506;BME280;58032;49.820;6.274;2022-11-14T00:36:07;97474.25;;;0.78;100.00
70506;BME280;58032;49.820;6.274;2022-11-14T00:38:53;97474.66;;;0.73;100.00
70506;BME280;58032;49.820;6.274;2022-11-14T00:41:41;97471.06;;;0.94;100.00
70506;BME280;58032;49.820;6.274;2022-11-14T00:44:26;97469.47;;;1.12;100.00
70506;BME280;58032;49.820;6.274;2022-11-14T00:47:12;97468.66;;;1.25;100.00
70506;BME280;58032;49.820;6.274;2022-11-14T00:49:58;97461.88;;;1.41;100.00
70506;BME280;58032;49.820;6.274;2022-11-14T00:52:43;97463.13;;;1.15;100.00
70506;BME280;58032;49.820;6.274;2022-11-14T00:55:29;97461.56;;;0.99;100.00
70506;BME280;58032;49.820;6.274;2022-11-14T00:58:14;97455.63;;;1.01;100.00
70506;BME280;58032;49.820;6.274;2022-11-14T01:00:59;97462.31;;;1.10;100.00
70506;BME280;58032;49.820;6.274;2022-11-14T01:03:49;97471.03;;;1.20;100.00
70506;BME280;58032;49.820;6.274;2022-11-14T01:06:35;97461.13;;;1.15;100.00
70506;BME280;58032;49.820;6.274;2022-11-14T01:09:20;97452.47;;;0.84;100.00
70506;BME280;58032;49.820;6.274;2022-11-14T01:12:06;97451.28;;;0.60;100.00
70506;BME280;58032;49.820;6.274;2022-11-14T01:14:51;97450.91;;;0.58;100.00
70506;BME280;58032;49.820;6.274;2022-11-14T01:17:37;97439.81;;;0.54;100.00
70506;BME280;58032;49.820;6.274;2022-11-14T01:20:22;97442.19;;;0.59;100.00
70506;BME280;58032;49.820;6.274;2022-11-14T01:23:08;97438.22;;;0.75;100.00
70506;BME280;58032;49.820;6.274;2022-11-14T01:26:00;97436.25;;;0.72;100.00
70506;BME280;58032;49.820;6.274;2022-11-14T01:28:46;97436.63;;;0.63;100.00
70506;BME280;58032;49.820;6.274;2022-11-14T01:31:32;97433.88;;;0.56;100.00
70506;BME280;58032;49.820;6.274;2022-11-14T01:34:18;97445.75;;;0.60;100.00
70506;BME280;58032;49.820;6.274;2022-11-14T01:37:03;97431.91;;;0.49;100.00
70506;BME280;58032;49.820;6.274;2022-11-14T01:39:48;97429.91;;;0.50;100.00
70506;BME280;58032;49.820;6.274;2022-11-14T01:42:34;97422.78;;;0.56;100.00
70506;BME280;58032;49.820;6.274;2022-11-14T01:48:29;97413.31;;;0.39;100.00
70506;BME280;58032;49.820;6.274;2022-11-14T01:51:26;97414.06;;;0.50;100.00
70506;BME280;58032;49.820;6.274;2022-11-14T01:54:21;97412.09;;;0.61;100.00
70506;BME280;58032;49.820;6.274;2022-11-14T01:57:09;97412.81;;;1.05;100.00
70506;BME280;58032;49.820;6.274;2022-11-14T02:00:03;97423.09;;;1.08;100.00
70506;BME280;58032;49.820;6.274;2022-11-14T02:02:49;97416.44;;;0.88;100.00
70506;BME280;58032;49.820;6.274;2022-11-14T02:05:34;97410.13;;;0.51;100.00
70506;BME280;58032;49.820;6.274;2022-11-14T02:08:20;97403.00;;;0.50;100.00
70506;BME280;58032;49.820;6.274;2022-11-14T02:11:09;97405.00;;;0.35;100.00
70506;BME280;58032;49.820;6.274;2022-11-14T02:13:56;97406.56;;;0.36;100.00
70506;BME280;58032;49.820;6.274;2022-11-14T02:16:43;97410.94;;;0.26;100.00
70506;BME280;58032;49.820;6.274;2022-11-14T02:19:44;97419.59;;;0.18;100.00
70506;BME280;58032;49.820;6.274;2022-11-14T02:22:30;97411.72;;;0.34;100.00
70506;BME280;58032;49.820;6.274;2022-11-14T02:25:17;97410.94;;;0.52;100.00
70506;BME280;58032;49.820;6.274;2022-11-14T02:28:04;97412.09;;;0.54;100.00
70506;BME280;58032;49.820;6.274;2022-11-14T02:30:52;97411.31;;;0.57;100.00
70506;BME280;58032;49.820;6.274;2022-11-14T02:33:37;97404.56;;;0.69;100.00
70506;BME280;58032;49.820;6.274;2022-11-14T02:36:23;97404.56;;;0.73;100.00
70506;BME280;58032;49.820;6.274;2022-11-14T02:39:08;97413.28;;;0.68;100.00
70506;BME280;58032;49.820;6.274;2022-11-14T02:41:54;97397.81;;;0.81;100.00
70506;BME280;58032;49.820;6.274;2022-11-14T02:44:40;97402.16;;;0.86;100.00
70506;BME280;58032;49.820;6.274;2022-11-14T02:47:25;97400.97;;;0.94;100.00
70506;BME280;58032;49.820;6.274;2022-11-14T02:50:11;97394.25;;;0.88;100.00
70506;BME280;58032;49.820;6.274;2022-11-14T02:52:57;97398.59;;;0.89;100.00
70506;BME280;58032;49.820;6.274;2022-11-14T02:55:42;97399.78;;;0.88;100.00
70506;BME280;58032;49.820;6.274;2022-11-14T02:58:27;97388.66;;;1.02;100.00
70506;BME280;58032;49.820;6.274;2022-11-14T03:01:13;97391.06;;;0.86;100.00
70506;BME280;58032;49.820;6.274;2022-11-14T03:04:04;97392.66;;;0.90;100.00
70506;BME280;58032;49.820;6.274;2022-11-14T03:06:49;97399.78;;;0.88;100.00
70506;BME280;58032;49.820;6.274;2022-11-14T03:09:35;97392.63;;;1.01;100.00
70506;BME280;58032;49.820;6.274;2022-11-14T03:12:20;97393.38;;;1.16;100.00
70506;BME280;58032;49.820;6.274;2022-11-14T03:15:06;97395.75;;;1.18;100.00
70506;BME280;58032;49.820;6.274;2022-11-14T03:17:52;97389.44;;;1.14;100.00
70506;BME280;58032;49.820;6.274;2022-11-14T03:20:38;97387.41;;;1.25;100.00
70506;BME280;58032;49.820;6.274;2022-11-14T03:23:24;97381.03;;;1.35;100.00
70506;BME280;58032;49.820;6.274;2022-11-14T03:26:10;97381.44;;;1.37;100.00
70506;BME280;58032;49.820;6.274;2022-11-14T03:28:55;97378.97;;;1.47;100.00
70506;BME280;58032;49.820;6.274;2022-11-14T03:31:41;97376.13;;;1.61;100.00
70506;BME280;58032;49.820;6.274;2022-11-14T03:34:27;97368.56;;;1.72;100.00
70506;BME280;58032;49.820;6.274;2022-11-14T03:37:12;97366.16;;;1.78;100.00
70506;BME280;58032;49.820;6.274;2022-11-14T03:39:58;97366.16;;;1.74;100.00
70506;BME280;58032;49.820;6.274;2022-11-14T03:42:43;97364.16;;;1.79;100.00
70506;BME280;58032;49.820;6.274;2022-11-14T03:45:28;97358.72;;;1.57;100.00
70506;BME280;58032;49.820;6.274;2022-11-14T03:48:14;97356.34;;;1.59;100.00
70506;BME280;58032;49.820;6.274;2022-11-14T03:50:59;97358.38;;;1.48;100.00
70506;BME280;58032;49.820;6.274;2022-11-14T03:53:44;97351.25;;;1.47;100.00
70506;BME280;58032;49.820;6.274;2022-11-14T03:56:30;97355.59;;;1.48;100.00
70506;BME280;58032;49.820;6.274;2022-11-14T03:59:15;97351.94;;;1.65;100.00
70506;BME280;58032;49.820;6.274;2022-11-14T04:02:01;97355.19;;;1.53;100.00
70506;BME280;58032;49.820;6.274;2022-11-14T04:04:47;97341.22;;;1.71;100.00
70506;BME280;58032;49.820;6.274;2022-11-14T04:07:32;97339.91;;;1.90;100.00
70506;BME280;58032;49.820;6.274;2022-11-14T04:10:18;97339.91;;;1.90;100.00
70506;BME280;58032;49.820;6.274;2022-11-14T04:13:04;97339.56;;;1.81;100.00
70506;BME280;58032;49.820;6.274;2022-11-14T04:15:57;97334.78;;;1.81;100.00
70506;BME280;58032;49.820;6.274;2022-11-14T04:18:42;97331.25;;;1.77;100.00
70506;BME280;58032;49.820;6.274;2022-11-14T04:21:28;97321.88;;;1.56;100.00
70506;BME280;58032;49.820;6.274;2022-11-14T04:24:13;97326.31;;;1.39;100.00
70506;BME280;58032;49.820;6.274;2022-11-14T04:26:59;97316.44;;;1.35;100.00
70506;BME280;58032;49.820;6.274;2022-11-14T04:29:44;97316.00;;;1.44;100.00
70506;BME280;58032;49.820;6.274;2022-11-14T04:32:30;97317.63;;;1.34;100.00
70506;BME280;58032;49.820;6.274;2022-11-14T04:35:16;97317.53;;;1.52;100.00
70506;BME280;58032;49.820;6.274;2022-11-14T04:38:02;97314.03;;;1.37;100.00
70506;BME280;58032;49.820;6.274;2022-11-14T04:40:51;97311.66;;;1.42;100.00
70506;BME280;58032;49.820;6.274;2022-11-14T04:43:37;97307.53;;;1.65;100.00
70506;BME280;58032;49.820;6.274;2022-11-14T04:46:22;97301.63;;;1.60;100.00
70506;BME280;58032;49.820;6.274;2022-11-14T04:49:08;97314.41;;;1.46;100.00
70506;BME280;58032;49.820;6.274;2022-11-14T04:51:53;97305.31;;;1.38;100.00
70506;BME280;58032;49.820;6.274;2022-11-14T04:54:38;97309.97;;;1.56;100.00
70506;BME280;58032;49.820;6.274;2022-11-14T04:57:24;97312.31;;;1.57;100.00
70506;BME280;58032;49.820;6.274;2022-11-14T05:00:10;97310.06;;;1.41;100.00
70506;BME280;58032;49.820;6.274;2022-11-14T05:02:57;97303.66;;;1.52;100.00
70506;BME280;58032;49.820;6.274;2022-11-14T05:05:43;97296.63;;;1.36;100.00
70506;BME280;58032;49.820;6.274;2022-11-14T05:08:28;97305.03;;;1.22;100.00
70506;BME280;58032;49.820;6.274;2022-11-14T05:11:15;97306.56;;;1.30;100.00
70506;BME280;58032;49.820;6.274;2022-11-14T05:14:01;97302.13;;;1.44;100.00
70506;BME280;58032;49.820;6.274;2022-11-14T05:16:46;97302.50;;;1.46;100.00
70506;BME280;58032;49.820;6.274;2022-11-14T05:19:32;97298.88;;;1.56;100.00
70506;BME280;58032;49.820;6.274;2022-11-14T05:22:17;97299.66;;;1.60;100.00
70506;BME280;58032;49.820;6.274;2022-11-14T05:25:03;97290.94;;;1.58;100.00
70506;BME280;58032;49.820;6.274;2022-11-14T05:27:49;97300.00;;;1.62;100.00
70506;BME280;58032;49.820;6.274;2022-11-14T05:30:34;97305.16;;;1.67;100.00
70506;BME280;58032;49.820;6.274;2022-11-14T05:33:19;97300.53;;;1.46;100.00
70506;BME280;58032;49.820;6.274;2022-11-14T05:36:12;97298.59;;;1.36;100.00
70506;BME280;58032;49.820;6.274;2022-11-14T05:38:58;97300.66;;;1.24;100.00
70506;BME280;58032;49.820;6.274;2022-11-14T05:41:44;97304.53;;;1.38;100.00
70506;BME280;58032;49.820;6.274;2022-11-14T05:44:29;97300.94;;;1.45;100.00
70506;BME280;58032;49.820;6.274;2022-11-14T05:47:15;97303.22;;;1.57;100.00
70506;BME280;58032;49.820;6.274;2022-11-14T05:50:01;97308.06;;;1.42;100.00
70506;BME280;58032;49.820;6.274;2022-11-14T05:52:47;97308.44;;;1.44;100.00
70506;BME280;58032;49.820;6.274;2022-11-14T05:55:32;97315.06;;;1.68;100.00
70506;BME280;58032;49.820;6.274;2022-11-14T05:58:18;97308.63;;;1.79;100.00
70506;BME280;58032;49.820;6.274;2022-11-14T06:01:07;97302.69;;;1.77;100.00
70506;BME280;58032;49.820;6.274;2022-11-14T06:03:53;97297.53;;;1.79;100.00
70506;BME280;58032;49.820;6.274;2022-11-14T06:06:38;97307.59;;;1.58;100.00
70506;BME280;58032;49.820;6.274;2022-11-14T06:09:24;97298.31;;;1.83;100.00
70506;BME280;58032;49.820;6.274;2022-11-14T06:12:09;97294.28;;;1.91;100.00
70506;BME280;58032;49.820;6.274;2022-11-14T06:14:55;97308.31;;;1.66;100.00
70506;BME280;58032;49.820;6.274;2022-11-14T06:17:41;97302.00;;;1.62;100.00
70506;BME280;58032;49.820;6.274;2022-11-14T06:20:26;97295.75;;;1.47;100.00
70506;BME280;58032;49.820;6.274;2022-11-14T06:23:11;97293.72;;;1.58;100.00
70506;BME280;58032;49.820;6.274;2022-11-14T06:26:04;97281.41;;;1.59;100.00
70506;BME280;58032;49.820;6.274;2022-11-14T06:28:51;97279.31;;;1.74;100.00
70506;BME280;58032;49.820;6.274;2022-11-14T06:31:37;97282.81;;;1.85;100.00
70506;BME280;58032;49.820;6.274;2022-11-14T06:34:23;97285.94;;;1.91;100.00
70506;BME280;58032;49.820;6.274;2022-11-14T06:37:08;97297.84;;;1.92;100.00
70506;BME280;58032;49.820;6.274;2022-11-14T06:39:54;97288.53;;;1.64;100.00
70506;BME280;58032;49.820;6.274;2022-11-14T06:42:39;97271.00;;;1.70;100.00
70506;BME280;58032;49.820;6.274;2022-11-14T06:45:24;97282.94;;;1.71;100.00
70506;BME280;58032;49.820;6.274;2022-11-14T06:48:10;97285.34;;;1.65;100.00
70506;BME280;58032;49.820;6.274;2022-11-14T06:50:57;97274.91;;;1.80;100.00
70506;BME280;58032;49.820;6.274;2022-11-14T06:53:43;97266.22;;;1.78;100.00
70506;BME280;58032;49.820;6.274;2022-11-14T06:56:28;97270.09;;;1.88;100.00
70506;BME280;58032;49.820;6.274;2022-11-14T06:59:14;97272.34;;;2.04;100.00
70506;BME280;58032;49.820;6.274;2022-11-14T07:01:59;97273.13;;;2.04;100.00
70506;BME280;58032;49.820;6.274;2022-11-14T07:04:45;97278.19;;;2.17;100.00
70506;BME280;58032;49.820;6.274;2022-11-14T07:07:30;97288.34;;;1.89;100.00
70506;BME280;58032;49.820;6.274;2022-11-14T07:10:15;97280.94;;;2.17;100.00
70506;BME280;58032;49.820;6.274;2022-11-14T07:13:01;97273.88;;;2.50;100.00
70506;BME280;58032;49.820;6.274;2022-11-14T07:15:53;97276.63;;;2.54;100.00
70506;BME280;58032;49.820;6.274;2022-11-14T07:18:39;97270.75;;;2.48;100.00
70506;BME280;58032;49.820;6.274;2022-11-14T07:21:26;97257.47;;;2.63;100.00
70506;BME280;58032;49.820;6.274;2022-11-14T07:24:12;97253.31;;;2.79;100.00
70506;BME280;58032;49.820;6.274;2022-11-14T07:26:57;97269.13;;;2.51;100.00
70506;BME280;58032;49.820;6.274;2022-11-14T07:29:42;97271.28;;;2.32;100.00
70506;BME280;58032;49.820;6.274;2022-11-14T07:32:28;97270.13;;;2.30;100.00
70506;BME280;58032;49.820;6.274;2022-11-14T07:35:13;97276.16;;;2.21;100.00
70506;BME280;58032;49.820;6.274;2022-11-14T07:38:02;97270.94;;;2.65;100.00
70506;BME280;58032;49.820;6.274;2022-11-14T07:40:59;97262.16;;;2.70;100.00
70506;BME280;58032;49.820;6.274;2022-11-14T07:43:45;97267.81;;;2.63;100.00
70506;BME280;58032;49.820;6.274;2022-11-14T07:46:31;97271.34;;;2.25;100.00
70506;BME280;58032;49.820;6.274;2022-11-14T07:49:16;97271.91;;;2.09;100.00
70506;BME280;58032;49.820;6.274;2022-11-14T07:52:01;97271.38;;;2.21;100.00
70506;BME280;58032;49.820;6.274;2022-11-14T07:54:46;97268.09;;;2.34;100.00
70506;BME280;58032;49.820;6.274;2022-11-14T07:57:31;97266.88;;;2.35;100.00
70506;BME280;58032;49.820;6.274;2022-11-14T08:00:20;97260.63;;;2.27;100.00
70506;BME280;58032;49.820;6.274;2022-11-14T08:03:06;97265.13;;;2.14;100.00
70506;BME280;58032;49.820;6.274;2022-11-14T08:06:03;97280.00;;;2.34;100.00
70506;BME280;58032;49.820;6.274;2022-11-14T08:08:49;97282.84;;;2.27;100.00
70506;BME280;58032;49.820;6.274;2022-11-14T08:11:34;97282.41;;;2.32;100.00
70506;BME280;58032;49.820;6.274;2022-11-14T08:14:32;97276.13;;;2.25;100.00
70506;BME280;58032;49.820;6.274;2022-11-14T08:17:19;97264.22;;;2.24;100.00
70506;BME280;58032;49.820;6.274;2022-11-14T08:20:06;97261.25;;;2.00;100.00
70506;BME280;58032;49.820;6.274;2022-11-14T08:23:02;97250.09;;;2.08;100.00
70506;BME280;58032;49.820;6.274;2022-11-14T08:25:48;97250.47;;;2.10;100.00
70506;BME280;58032;49.820;6.274;2022-11-14T08:28:34;97256.09;;;2.02;100.00
70506;BME280;58032;49.820;6.274;2022-11-14T08:31:20;97256.38;;;2.15;100.00
70506;BME280;58032;49.820;6.274;2022-11-14T08:34:06;97237.41;;;2.48;100.00
70506;BME280;58032;49.820;6.274;2022-11-14T08:36:51;97236.22;;;2.46;100.00
70506;BME280;58032;49.820;6.274;2022-11-14T08:39:37;97237.44;;;2.07;100.00
70506;BME280;58032;49.820;6.274;2022-11-14T08:42:22;97238.75;;;2.33;100.00
70506;BME280;58032;49.820;6.274;2022-11-14T08:45:08;97238.63;;;2.44;100.00
70506;BME280;58032;49.820;6.274;2022-11-14T08:47:54;97231.75;;;2.17;100.00
70506;BME280;58032;49.820;6.274;2022-11-14T08:50:40;97232.56;;;2.14;100.00
70506;BME280;58032;49.820;6.274;2022-11-14T08:53:25;97236.13;;;2.15;100.00
70506;BME280;58032;49.820;6.274;2022-11-14T08:56:10;97233.53;;;2.73;100.00
70506;BME280;58032;49.820;6.274;2022-11-14T08:58:56;97234.16;;;2.88;100.00
70506;BME280;58032;49.820;6.274;2022-11-14T09:01:42;97247.13;;;2.67;100.00
70506;BME280;58032;49.820;6.274;2022-11-14T09:04:27;97247.66;;;2.86;100.00
70506;BME280;58032;49.820;6.274;2022-11-14T09:07:13;97246.13;;;2.81;100.00
70506;BME280;58032;49.820;6.274;2022-11-14T09:09:58;97245.88;;;2.68;100.00
70506;BME280;58032;49.820;6.274;2022-11-14T09:12:44;97250.19;;;2.73;100.00
70506;BME280;58032;49.820;6.274;2022-11-14T09:15:31;97256.47;;;2.81;100.00
70506;BME280;58032;49.820;6.274;2022-11-14T09:18:18;97255.75;;;2.73;100.00
70506;BME280;58032;49.820;6.274;2022-11-14T09:21:06;97252.47;;;2.85;100.00
70506;BME280;58032;49.820;6.274;2022-11-14T09:23:51;97254.31;;;2.61;100.00
70506;BME280;58032;49.820;6.274;2022-11-14T09:26:39;97239.22;;;2.62;100.00
70506;BME280;58032;49.820;6.274;2022-11-14T09:29:25;97235.38;;;2.83;100.00
70506;BME280;58032;49.820;6.274;2022-11-14T09:32:10;97234.25;;;2.81;100.00
70506;BME280;58032;49.820;6.274;2022-11-14T09:34:55;97246.38;;;2.60;100.00
70506;BME280;58032;49.820;6.274;2022-11-14T09:37:41;97242.66;;;2.74;100.00
70506;BME280;58032;49.820;6.274;2022-11-14T09:40:27;97246.47;;;2.52;100.00
70506;BME280;58032;49.820;6.274;2022-11-14T09:46:25;97234.53;;;2.90;100.00
70506;BME280;58032;49.820;6.274;2022-11-14T09:49:44;97242.06;;;2.90;100.00
70506;BME280;58032;49.820;6.274;2022-11-14T09:52:37;97247.50;;;3.00;100.00
70506;BME280;58032;49.820;6.274;2022-11-14T09:55:29;97251.34;;;2.79;100.00
70506;BME280;58032;49.820;6.274;2022-11-14T09:58:20;97259.34;;;2.74;100.00
70506;BME280;58032;49.820;6.274;2022-11-14T10:01:11;97246.66;;;2.73;100.00
70506;BME280;58032;49.820;6.274;2022-11-14T10:07:04;97243.34;;;2.47;100.00
70506;BME280;58032;49.820;6.274;2022-11-14T10:16:36;97248.53;;;3.14;100.00
70506;BME280;58032;49.820;6.274;2022-11-14T10:19:37;97257.75;;;3.07;100.00
70506;BME280;58032;49.820;6.274;2022-11-14T10:34:38;97228.34;;;3.06;100.00
70506;BME280;58032;49.820;6.274;2022-11-14T10:37:41;97227.28;;;3.55;100.00
70506;BME280;58032;49.820;6.274;2022-11-14T10:40:54;97224.22;;;3.45;100.00
70506;BME280;58032;49.820;6.274;2022-11-14T10:43:47;97224.31;;;3.66;100.00
70506;BME280;58032;49.820;6.274;2022-11-14T10:46:36;97217.13;;;3.13;100.00
70506;BME280;58032;49.820;6.274;2022-11-14T10:49:24;97219.22;;;3.84;100.00
70506;BME280;58032;49.820;6.274;2022-11-14T10:52:14;97213.25;;;3.35;100.00
70506;BME280;58032;49.820;6.274;2022-11-14T10:55:13;97214.47;;;3.85;100.00
70506;BME280;58032;49.820;6.274;2022-11-14T10:57:59;97211.13;;;3.93;100.00
70506;BME280;58032;49.820;6.274;2022-11-14T11:00:45;97207.13;;;3.94;100.00
70506;BME280;58032;49.820;6.274;2022-11-14T11:03:42;97200.19;;;4.26;100.00
70506;BME280;58032;49.820;6.274;2022-11-14T11:06:28;97193.34;;;3.87;100.00
70506;BME280;58032;49.820;6.274;2022-11-14T11:09:22;97188.00;;;3.96;100.00
70506;BME280;58032;49.820;6.274;2022-11-14T11:15:28;97194.47;;;4.14;100.00
70506;BME280;58032;49.820;6.274;2022-11-14T11:18:28;97188.13;;;3.89;100.00
70506;BME280;58032;49.820;6.274;2022-11-14T11:21:17;97182.91;;;3.91;100.00
70506;BME280;58032;49.820;6.274;2022-11-14T11:24:03;97183.69;;;3.92;100.00
70506;BME280;58032;49.820;6.274;2022-11-14T11:27:28;97189.31;;;4.12;100.00
70506;BME280;58032;49.820;6.274;2022-11-14T11:30:21;97187.25;;;4.16;100.00
70506;BME280;58032;49.820;6.274;2022-11-14T11:33:24;97188.69;;;4.24;100.00
70506;BME280;58032;49.820;6.274;2022-11-14T11:36:18;97175.91;;;4.47;100.00
70506;BME280;58032;49.820;6.274;2022-11-14T11:39:04;97176.41;;;4.62;100.00
70506;BME280;58032;49.820;6.274;2022-11-14T11:41:51;97169.50;;;4.87;100.00
70506;BME280;58032;49.820;6.274;2022-11-14T11:44:55;97171.53;;;4.46;100.00
70506;BME280;58032;49.820;6.274;2022-11-14T11:50:39;97170.84;;;4.62;100.00
70506;BME280;58032;49.820;6.274;2022-11-14T11:53:36;97172.13;;;4.78;100.00
70506;BME280;58032;49.820;6.274;2022-11-14T11:56:25;97167.47;;;4.51;100.00
70506;BME280;58032;49.820;6.274;2022-11-14T11:59:23;97165.59;;;4.84;100.00
70506;BME280;58032;49.820;6.274;2022-11-14T12:05:06;97169.03;;;4.72;100.00
70506;BME280;58032;49.820;6.274;2022-11-14T12:11:10;97160.97;;;4.57;100.00
70506;BME280;58032;49.820;6.274;2022-11-14T12:33:14;97168.66;;;4.90;100.00
70506;BME280;58032;49.820;6.274;2022-11-14T12:35:33;97166.19;;;5.12;100.00
70506;BME280;58032;49.820;6.274;2022-11-14T12:38:20;97167.56;;;5.04;100.00
70506;BME280;58032;49.820;6.274;2022-11-14T12:41:07;97167.22;;;5.02;100.00
70506;BME280;58032;49.820;6.274;2022-11-14T12:44:18;97169.44;;;4.90;100.00
70506;BME280;58032;49.820;6.274;2022-11-14T12:58:44;97167.44;;;5.44;100.00
70506;BME280;58032;49.820;6.274;2022-11-14T13:11:44;97145.16;;;5.07;100.00
70506;BME280;58032;49.820;6.274;2022-11-14T13:14:58;97144.72;;;5.09;100.00
70506;BME280;58032;49.820;6.274;2022-11-14T13:18:24;97145.56;;;4.89;100.00
70506;BME280;58032;49.820;6.274;2022-11-14T13:21:29;97137.91;;;4.94;100.00
70506;BME280;58032;49.820;6.274;2022-11-14T13:27:45;97137.19;;;4.89;100.00
70506;BME280;58032;49.820;6.274;2022-11-14T13:49:55;97138.22;;;4.79;100.00
70506;BME280;58032;49.820;6.274;2022-11-14T13:52:44;97133.41;;;4.80;100.00
70506;BME280;58032;49.820;6.274;2022-11-14T13:59:00;97133.84;;;4.78;100.00
70506;BME280;58032;49.820;6.274;2022-11-14T14:05:28;97141.38;;;4.81;100.00
70506;BME280;58032;49.820;6.274;2022-11-14T14:08:28;97141.84;;;4.76;100.00
70506;BME280;58032;49.820;6.274;2022-11-14T14:17:18;97152.31;;;4.72;100.00
70506;BME280;58032;49.820;6.274;2022-11-14T14:29:17;97129.63;;;4.70;100.00
70506;BME280;58032;49.820;6.274;2022-11-14T14:32:12;97132.94;;;4.65;100.00
70506;BME280;58032;49.820;6.274;2022-11-14T14:34:59;97133.03;;;4.61;100.00
70506;BME280;58032;49.820;6.274;2022-11-14T14:37:53;97124.81;;;4.54;100.00
70506;BME280;58032;49.820;6.274;2022-11-14T14:40:41;97125.50;;;4.58;100.00
70506;BME280;58032;49.820;6.274;2022-11-14T14:43:31;97120.72;;;4.58;100.00
70506;BME280;58032;49.820;6.274;2022-11-14T14:46:28;97132.72;;;4.55;100.00
70506;BME280;58032;49.820;6.274;2022-11-14T14:49:27;97133.66;;;4.49;100.00
70506;BME280;58032;49.820;6.274;2022-11-14T14:55:25;97143.25;;;4.48;100.00
70506;BME280;58032;49.820;6.274;2022-11-14T14:58:24;97135.53;;;4.55;100.00
70506;BME280;58032;49.820;6.274;2022-11-14T15:01:13;97142.38;;;4.51;100.00
70506;BME280;58032;49.820;6.274;2022-11-14T15:04:06;97147.03;;;4.57;100.00
70506;BME280;58032;49.820;6.274;2022-11-14T15:06:53;97140.59;;;4.60;100.00
70506;BME280;58032;49.820;6.274;2022-11-14T15:09:55;97142.81;;;4.69;100.00
70506;BME280;58032;49.820;6.274;2022-11-14T15:12:42;97137.31;;;4.66;100.00
70506;BME280;58032;49.820;6.274;2022-11-14T15:15:28;97136.03;;;4.50;100.00
70506;BME280;58032;49.820;6.274;2022-11-14T15:18:22;97147.13;;;4.54;100.00
70506;BME280;58032;49.820;6.274;2022-11-14T15:24:15;97141.75;;;4.43;100.00
70506;BME280;58032;49.820;6.274;2022-11-14T15:27:10;97142.59;;;4.40;100.00
70506;BME280;58032;49.820;6.274;2022-11-14T15:30:01;97139.38;;;4.41;100.00
70506;BME280;58032;49.820;6.274;2022-11-14T15:32:50;97144.25;;;4.37;100.00
70506;BME280;58032;49.820;6.274;2022-11-14T15:35:38;97148.91;;;4.44;100.00
70506;BME280;58032;49.820;6.274;2022-11-14T15:38:24;97150.59;;;4.38;100.00
70506;BME280;58032;49.820;6.274;2022-11-14T15:41:31;97159.47;;;4.33;100.00
70506;BME280;58032;49.820;6.274;2022-11-14T15:44:34;97151.47;;;4.35;100.00
70506;BME280;58032;49.820;6.274;2022-11-14T15:47:33;97149.97;;;4.30;100.00
70506;BME280;58032;49.820;6.274;2022-11-14T15:50:30;97145.16;;;4.31;100.00
70506;BME280;58032;49.820;6.274;2022-11-14T15:53:21;97144.53;;;4.23;100.00
70506;BME280;58032;49.820;6.274;2022-11-14T15:56:10;97153.19;;;4.28;100.00
70506;BME280;58032;49.820;6.274;2022-11-14T15:58:56;97154.75;;;4.30;100.00
70506;BME280;58032;49.820;6.274;2022-11-14T16:01:43;97158.47;;;4.23;100.00
70506;BME280;58032;49.820;6.274;2022-11-14T16:04:32;97154.47;;;4.24;100.00
70506;BME280;58032;49.820;6.274;2022-11-14T16:07:18;97151.47;;;4.35;100.00
70506;BME280;58032;49.820;6.274;2022-11-14T16:10:16;97151.88;;;4.33;100.00
70506;BME280;58032;49.820;6.274;2022-11-14T16:13:02;97154.66;;;4.33;100.00
70506;BME280;58032;49.820;6.274;2022-11-14T16:15:47;97159.31;;;4.40;100.00
70506;BME280;58032;49.820;6.274;2022-11-14T16:18:32;97164.13;;;4.39;100.00
70506;BME280;58032;49.820;6.274;2022-11-14T16:21:18;97170.31;;;4.27;100.00
70506;BME280;58032;49.820;6.274;2022-11-14T16:24:04;97167.31;;;4.38;100.00
70506;BME280;58032;49.820;6.274;2022-11-14T16:26:49;97166.63;;;4.34;100.00
70506;BME280;58032;49.820;6.274;2022-11-14T16:29:35;97182.47;;;4.37;100.00
70506;BME280;58032;49.820;6.274;2022-11-14T16:32:20;97182.13;;;4.35;100.00
70506;BME280;58032;49.820;6.274;2022-11-14T16:35:18;97180.94;;;4.36;100.00
70506;BME280;58032;49.820;6.274;2022-11-14T16:38:04;97185.25;;;4.37;100.00
70506;BME280;58032;49.820;6.274;2022-11-14T16:40:49;97195.56;;;4.40;100.00
70506;BME280;58032;49.820;6.274;2022-11-14T16:43:34;97188.91;;;4.34;100.00
70506;BME280;58032;49.820;6.274;2022-11-14T16:46:20;97193.69;;;4.33;100.00
70506;BME280;58032;49.820;6.274;2022-11-14T16:49:06;97195.25;;;4.34;100.00
70506;BME280;58032;49.820;6.274;2022-11-14T16:51:51;97193.69;;;4.33;100.00
70506;BME280;58032;49.820;6.274;2022-11-14T16:54:39;97203.56;;;4.38;100.00
70506;BME280;58032;49.820;6.274;2022-11-14T16:57:24;97200.38;;;4.39;100.00
70506;BME280;58032;49.820;6.274;2022-11-14T17:00:11;97206.28;;;4.41;100.00
70506;BME280;58032;49.820;6.274;2022-11-14T17:02:57;97208.59;;;4.47;100.00